sensor_id;sensor_type;location;lat;lon;timestamp;P1;durP1;ratioP1;P2;durP2;ratioP2
57087;SDS011;42965;52.846;6.614;2023-03-12T00:00:54;12.50;;;7.82;;
57087;SDS011;42965;52.846;6.614;2023-03-12T00:03:20;12.15;;;7.53;;
57087;SDS011;42965;52.846;6.614;2023-03-12T00:05:46;11.98;;;7.47;;
57087;SDS011;42965;52.846;6.614;2023-03-12T00:08:13;10.57;;;8.07;;
57087;SDS011;42965;52.846;6.614;2023-03-12T00:10:39;12.15;;;8.32;;
57087;SDS011;42965;52.846;6.614;2023-03-12T00:13:06;9.65;;;8.02;;
57087;SDS011;42965;52.846;6.614;2023-03-12T00:15:36;18.50;;;7.38;;
57087;SDS011;42965;52.846;6.614;2023-03-12T00:18:04;9.63;;;7.43;;
57087;SDS011;42965;52.846;6.614;2023-03-12T00:20:30;10.13;;;7.75;;
57087;SDS011;42965;52.846;6.614;2023-03-12T00:22:57;9.82;;;7.63;;
57087;SDS011;42965;52.846;6.614;2023-03-12T00:25:23;12.15;;;7.75;;
57087;SDS011;42965;52.846;6.614;2023-03-12T00:27:49;11.43;;;7.40;;
57087;SDS011;42965;52.846;6.614;2023-03-12T00:30:15;11.35;;;8.00;;
57087;SDS011;42965;52.846;6.614;2023-03-12T00:32:42;12.63;;;8.10;;
57087;SDS011;42965;52.846;6.614;2023-03-12T00:35:09;10.43;;;8.07;;
57087;SDS011;42965;52.846;6.614;2023-03-12T00:37:36;12.48;;;8.05;;
57087;SDS011;42965;52.846;6.614;2023-03-12T00:40:03;11.13;;;7.90;;
57087;SDS011;42965;52.846;6.614;2023-03-12T00:42:30;10.73;;;7.82;;
57087;SDS011;42965;52.846;6.614;2023-03-12T00:44:57;11.25;;;8.55;;
57087;SDS011;42965;52.846;6.614;2023-03-12T00:47:24;11.95;;;8.13;;
57087;SDS011;42965;52.846;6.614;2023-03-12T00:49:51;15.60;;;10.50;;
57087;SDS011;42965;52.846;6.614;2023-03-12T00:52:17;22.58;;;15.05;;
57087;SDS011;42965;52.846;6.614;2023-03-12T00:54:43;19.17;;;12.55;;
57087;SDS011;42965;52.846;6.614;2023-03-12T00:57:09;16.05;;;10.60;;
57087;SDS011;42965;52.846;6.614;2023-03-12T00:59:36;18.77;;;11.68;;
57087;SDS011;42965;52.846;6.614;2023-03-12T01:02:06;16.52;;;11.30;;
57087;SDS011;42965;52.846;6.614;2023-03-12T01:04:32;18.77;;;11.10;;
57087;SDS011;42965;52.846;6.614;2023-03-12T01:06:58;14.57;;;10.85;;
57087;SDS011;42965;52.846;6.614;2023-03-12T01:09:25;15.43;;;10.60;;
57087;SDS011;42965;52.846;6.614;2023-03-12T01:11:51;15.90;;;10.55;;
57087;SDS011;42965;52.846;6.614;2023-03-12T01:14:17;15.40;;;11.40;;
57087;SDS011;42965;52.846;6.614;2023-03-12T01:16:44;14.77;;;9.80;;
57087;SDS011;42965;52.846;6.614;2023-03-12T01:19:11;11.27;;;9.00;;
57087;SDS011;42965;52.846;6.614;2023-03-12T01:21:38;12.20;;;8.90;;
57087;SDS011;42965;52.846;6.614;2023-03-12T01:24:04;11.32;;;8.40;;
57087;SDS011;42965;52.846;6.614;2023-03-12T01:26:31;16.13;;;8.77;;
57087;SDS011;42965;52.846;6.614;2023-03-12T01:28:57;15.30;;;9.38;;
57087;SDS011;42965;52.846;6.614;2023-03-12T01:31:24;12.63;;;7.57;;
57087;SDS011;42965;52.846;6.614;2023-03-12T01:33:52;11.25;;;8.38;;
57087;SDS011;42965;52.846;6.614;2023-03-12T01:36:19;11.55;;;7.43;;
57087;SDS011;42965;52.846;6.614;2023-03-12T01:38:52;14.90;;;8.18;;
57087;SDS011;42965;52.846;6.614;2023-03-12T01:41:21;11.10;;;8.25;;
57087;SDS011;42965;52.846;6.614;2023-03-12T01:43:49;12.75;;;7.78;;
57087;SDS011;42965;52.846;6.614;2023-03-12T01:51:59;10.23;;;8.07;;
57087;SDS011;42965;52.846;6.614;2023-03-12T01:54:37;11.45;;;7.32;;
57087;SDS011;42965;52.846;6.614;2023-03-12T01:57:07;11.25;;;7.45;;
57087;SDS011;42965;52.846;6.614;2023-03-12T01:59:40;9.95;;;6.72;;
57087;SDS011;42965;52.846;6.614;2023-03-12T02:02:13;13.10;;;6.85;;
57087;SDS011;42965;52.846;6.614;2023-03-12T02:04:43;8.95;;;6.30;;
57087;SDS011;42965;52.846;6.614;2023-03-12T02:07:11;9.80;;;6.93;;
57087;SDS011;42965;52.846;6.614;2023-03-12T02:09:44;10.90;;;7.22;;
57087;SDS011;42965;52.846;6.614;2023-03-12T02:12:13;10.63;;;7.35;;
57087;SDS011;42965;52.846;6.614;2023-03-12T02:14:40;11.02;;;6.38;;
57087;SDS011;42965;52.846;6.614;2023-03-12T02:17:07;7.30;;;6.05;;
57087;SDS011;42965;52.846;6.614;2023-03-12T02:22:33;10.73;;;6.68;;
57087;SDS011;42965;52.846;6.614;2023-03-12T02:27:53;9.82;;;6.72;;
57087;SDS011;42965;52.846;6.614;2023-03-12T02:30:20;11.32;;;6.50;;
57087;SDS011;42965;52.846;6.614;2023-03-12T02:32:48;9.60;;;6.38;;
57087;SDS011;42965;52.846;6.614;2023-03-12T02:35:16;10.20;;;6.82;;
57087;SDS011;42965;52.846;6.614;2023-03-12T02:37:50;11.50;;;7.22;;
57087;SDS011;42965;52.846;6.614;2023-03-12T02:42:53;12.02;;;6.45;;
57087;SDS011;42965;52.846;6.614;2023-03-12T02:45:21;8.85;;;5.82;;
57087;SDS011;42965;52.846;6.614;2023-03-12T02:47:48;8.35;;;6.20;;
57087;SDS011;42965;52.846;6.614;2023-03-12T02:50:15;7.75;;;6.15;;
57087;SDS011;42965;52.846;6.614;2023-03-12T02:52:44;9.30;;;6.05;;
57087;SDS011;42965;52.846;6.614;2023-03-12T02:55:10;9.70;;;6.10;;
57087;SDS011;42965;52.846;6.614;2023-03-12T02:57:37;10.95;;;6.90;;
57087;SDS011;42965;52.846;6.614;2023-03-12T03:00:07;9.02;;;5.57;;
57087;SDS011;42965;52.846;6.614;2023-03-12T03:02:42;8.48;;;5.40;;
57087;SDS011;42965;52.846;6.614;2023-03-12T03:05:09;12.35;;;6.65;;
57087;SDS011;42965;52.846;6.614;2023-03-12T03:07:36;8.68;;;5.45;;
57087;SDS011;42965;52.846;6.614;2023-03-12T03:10:02;8.82;;;5.60;;
57087;SDS011;42965;52.846;6.614;2023-03-12T03:12:30;8.95;;;5.78;;
57087;SDS011;42965;52.846;6.614;2023-03-12T03:14:58;10.77;;;5.60;;
57087;SDS011;42965;52.846;6.614;2023-03-12T03:17:25;9.52;;;5.63;;
57087;SDS011;42965;52.846;6.614;2023-03-12T03:19:52;8.35;;;5.20;;
57087;SDS011;42965;52.846;6.614;2023-03-12T03:22:19;11.23;;;5.95;;
57087;SDS011;42965;52.846;6.614;2023-03-12T03:24:46;9.40;;;5.55;;
57087;SDS011;42965;52.846;6.614;2023-03-12T03:27:13;7.70;;;5.15;;
57087;SDS011;42965;52.846;6.614;2023-03-12T03:29:40;10.20;;;4.88;;
57087;SDS011;42965;52.846;6.614;2023-03-12T03:32:07;7.97;;;5.50;;
57087;SDS011;42965;52.846;6.614;2023-03-12T03:34:33;8.15;;;5.03;;
57087;SDS011;42965;52.846;6.614;2023-03-12T03:37:00;8.07;;;5.30;;
57087;SDS011;42965;52.846;6.614;2023-03-12T03:39:30;11.88;;;5.22;;
57087;SDS011;42965;52.846;6.614;2023-03-12T03:41:57;8.90;;;6.00;;
57087;SDS011;42965;52.846;6.614;2023-03-12T03:44:25;6.65;;;5.05;;
57087;SDS011;42965;52.846;6.614;2023-03-12T03:46:51;8.63;;;4.93;;
57087;SDS011;42965;52.846;6.614;2023-03-12T03:49:20;8.90;;;6.18;;
57087;SDS011;42965;52.846;6.614;2023-03-12T03:51:46;9.73;;;5.53;;
57087;SDS011;42965;52.846;6.614;2023-03-12T03:54:19;11.00;;;5.68;;
57087;SDS011;42965;52.846;6.614;2023-03-12T03:56:45;9.55;;;5.90;;
57087;SDS011;42965;52.846;6.614;2023-03-12T03:59:12;9.20;;;5.75;;
57087;SDS011;42965;52.846;6.614;2023-03-12T04:01:40;9.88;;;5.40;;
57087;SDS011;42965;52.846;6.614;2023-03-12T04:04:06;8.57;;;6.20;;
57087;SDS011;42965;52.846;6.614;2023-03-12T04:06:34;7.80;;;5.60;;
57087;SDS011;42965;52.846;6.614;2023-03-12T04:09:00;8.93;;;5.80;;
57087;SDS011;42965;52.846;6.614;2023-03-12T04:11:28;8.70;;;5.78;;
57087;SDS011;42965;52.846;6.614;2023-03-12T04:13:56;7.13;;;5.75;;
57087;SDS011;42965;52.846;6.614;2023-03-12T04:16:24;9.05;;;5.50;;
57087;SDS011;42965;52.846;6.614;2023-03-12T04:18:53;9.93;;;6.68;;
57087;SDS011;42965;52.846;6.614;2023-03-12T04:21:20;7.93;;;5.82;;
57087;SDS011;42965;52.846;6.614;2023-03-12T04:23:48;10.55;;;5.80;;
57087;SDS011;42965;52.846;6.614;2023-03-12T04:26:15;9.32;;;6.10;;
57087;SDS011;42965;52.846;6.614;2023-03-12T04:28:42;12.82;;;6.47;;
57087;SDS011;42965;52.846;6.614;2023-03-12T04:31:09;8.50;;;6.00;;
57087;SDS011;42965;52.846;6.614;2023-03-12T04:33:45;8.82;;;5.72;;
57087;SDS011;42965;52.846;6.614;2023-03-12T04:36:12;8.85;;;5.47;;
57087;SDS011;42965;52.846;6.614;2023-03-12T04:38:43;9.50;;;6.03;;
57087;SDS011;42965;52.846;6.614;2023-03-12T04:41:11;10.93;;;6.40;;
57087;SDS011;42965;52.846;6.614;2023-03-12T04:43:45;11.38;;;6.05;;
57087;SDS011;42965;52.846;6.614;2023-03-12T04:46:12;9.93;;;6.32;;
57087;SDS011;42965;52.846;6.614;2023-03-12T04:48:40;11.15;;;5.30;;
57087;SDS011;42965;52.846;6.614;2023-03-12T04:51:06;9.32;;;6.38;;
57087;SDS011;42965;52.846;6.614;2023-03-12T04:53:33;9.07;;;5.72;;
57087;SDS011;42965;52.846;6.614;2023-03-12T04:56:01;9.10;;;5.45;;
57087;SDS011;42965;52.846;6.614;2023-03-12T04:58:28;9.38;;;6.15;;
57087;SDS011;42965;52.846;6.614;2023-03-12T05:00:54;11.23;;;6.32;;
57087;SDS011;42965;52.846;6.614;2023-03-12T05:03:21;10.40;;;5.68;;
57087;SDS011;42965;52.846;6.614;2023-03-12T05:05:48;11.93;;;5.55;;
57087;SDS011;42965;52.846;6.614;2023-03-12T05:08:14;12.73;;;5.65;;
57087;SDS011;42965;52.846;6.614;2023-03-12T05:10:40;10.27;;;6.20;;
57087;SDS011;42965;52.846;6.614;2023-03-12T05:13:12;9.98;;;6.35;;
57087;SDS011;42965;52.846;6.614;2023-03-12T05:15:43;8.73;;;5.90;;
57087;SDS011;42965;52.846;6.614;2023-03-12T05:18:10;12.52;;;6.38;;
57087;SDS011;42965;52.846;6.614;2023-03-12T05:20:36;8.85;;;5.72;;
57087;SDS011;42965;52.846;6.614;2023-03-12T05:23:03;10.38;;;5.88;;
57087;SDS011;42965;52.846;6.614;2023-03-12T05:25:29;12.40;;;6.07;;
57087;SDS011;42965;52.846;6.614;2023-03-12T05:27:56;12.73;;;5.72;;
57087;SDS011;42965;52.846;6.614;2023-03-12T05:30:23;11.10;;;6.57;;
57087;SDS011;42965;52.846;6.614;2023-03-12T05:32:50;10.05;;;6.00;;
57087;SDS011;42965;52.846;6.614;2023-03-12T05:35:17;9.25;;;5.47;;
57087;SDS011;42965;52.846;6.614;2023-03-12T05:37:44;9.75;;;5.85;;
57087;SDS011;42965;52.846;6.614;2023-03-12T05:40:12;10.45;;;6.50;;
57087;SDS011;42965;52.846;6.614;2023-03-12T05:42:38;11.38;;;6.70;;
57087;SDS011;42965;52.846;6.614;2023-03-12T05:45:07;11.55;;;6.70;;
57087;SDS011;42965;52.846;6.614;2023-03-12T05:47:35;11.40;;;6.28;;
57087;SDS011;42965;52.846;6.614;2023-03-12T05:50:03;13.10;;;6.63;;
57087;SDS011;42965;52.846;6.614;2023-03-12T05:52:30;10.48;;;6.70;;
57087;SDS011;42965;52.846;6.614;2023-03-12T05:54:56;12.00;;;7.07;;
57087;SDS011;42965;52.846;6.614;2023-03-12T05:57:22;8.93;;;6.20;;
57087;SDS011;42965;52.846;6.614;2023-03-12T05:59:49;9.82;;;6.57;;
57087;SDS011;42965;52.846;6.614;2023-03-12T06:02:15;10.60;;;7.05;;
57087;SDS011;42965;52.846;6.614;2023-03-12T06:04:42;9.95;;;7.22;;
57087;SDS011;42965;52.846;6.614;2023-03-12T06:07:08;14.48;;;7.78;;
57087;SDS011;42965;52.846;6.614;2023-03-12T06:09:34;11.40;;;7.57;;
57087;SDS011;42965;52.846;6.614;2023-03-12T06:12:03;11.57;;;7.88;;
57087;SDS011;42965;52.846;6.614;2023-03-12T06:14:33;15.15;;;9.02;;
57087;SDS011;42965;52.846;6.614;2023-03-12T06:16:59;9.95;;;8.05;;
57087;SDS011;42965;52.846;6.614;2023-03-12T06:19:27;10.25;;;7.82;;
57087;SDS011;42965;52.846;6.614;2023-03-12T06:21:54;14.93;;;8.27;;
57087;SDS011;42965;52.846;6.614;2023-03-12T06:24:21;13.63;;;8.75;;
57087;SDS011;42965;52.846;6.614;2023-03-12T06:26:52;10.47;;;7.73;;
57087;SDS011;42965;52.846;6.614;2023-03-12T06:29:19;13.25;;;8.35;;
57087;SDS011;42965;52.846;6.614;2023-03-12T06:31:45;13.07;;;9.13;;
57087;SDS011;42965;52.846;6.614;2023-03-12T06:34:13;13.43;;;8.63;;
57087;SDS011;42965;52.846;6.614;2023-03-12T06:36:41;15.00;;;8.55;;
57087;SDS011;42965;52.846;6.614;2023-03-12T06:39:07;12.75;;;7.90;;
57087;SDS011;42965;52.846;6.614;2023-03-12T06:41:35;11.75;;;9.45;;
57087;SDS011;42965;52.846;6.614;2023-03-12T06:44:01;13.23;;;8.98;;
57087;SDS011;42965;52.846;6.614;2023-03-12T06:46:31;13.52;;;9.75;;
57087;SDS011;42965;52.846;6.614;2023-03-12T06:48:58;13.63;;;9.88;;
57087;SDS011;42965;52.846;6.614;2023-03-12T06:51:24;11.80;;;8.80;;
57087;SDS011;42965;52.846;6.614;2023-03-12T06:53:53;11.25;;;8.43;;
57087;SDS011;42965;52.846;6.614;2023-03-12T06:56:20;12.48;;;8.45;;
57087;SDS011;42965;52.846;6.614;2023-03-12T06:58:46;12.35;;;8.77;;
57087;SDS011;42965;52.846;6.614;2023-03-12T07:01:12;9.88;;;8.60;;
57087;SDS011;42965;52.846;6.614;2023-03-12T07:03:39;9.23;;;8.15;;
57087;SDS011;42965;52.846;6.614;2023-03-12T07:06:11;12.50;;;9.52;;
57087;SDS011;42965;52.846;6.614;2023-03-12T07:08:42;12.65;;;8.43;;
57087;SDS011;42965;52.846;6.614;2023-03-12T07:11:11;12.80;;;7.90;;
57087;SDS011;42965;52.846;6.614;2023-03-12T07:13:38;12.50;;;8.15;;
57087;SDS011;42965;52.846;6.614;2023-03-12T07:16:05;11.70;;;8.18;;
57087;SDS011;42965;52.846;6.614;2023-03-12T07:18:32;13.43;;;7.78;;
57087;SDS011;42965;52.846;6.614;2023-03-12T07:21:02;9.82;;;6.65;;
57087;SDS011;42965;52.846;6.614;2023-03-12T07:23:28;11.23;;;7.80;;
57087;SDS011;42965;52.846;6.614;2023-03-12T07:25:56;14.57;;;7.90;;
57087;SDS011;42965;52.846;6.614;2023-03-12T07:28:22;15.05;;;8.45;;
57087;SDS011;42965;52.846;6.614;2023-03-12T07:30:48;11.88;;;8.65;;
57087;SDS011;42965;52.846;6.614;2023-03-12T07:33:16;12.93;;;8.80;;
57087;SDS011;42965;52.846;6.614;2023-03-12T07:35:44;12.73;;;8.57;;
57087;SDS011;42965;52.846;6.614;2023-03-12T07:38:11;12.80;;;9.75;;
57087;SDS011;42965;52.846;6.614;2023-03-12T07:40:38;14.77;;;9.45;;
57087;SDS011;42965;52.846;6.614;2023-03-12T07:43:05;12.65;;;9.30;;
57087;SDS011;42965;52.846;6.614;2023-03-12T07:45:36;12.68;;;9.30;;
57087;SDS011;42965;52.846;6.614;2023-03-12T07:48:04;14.93;;;9.80;;
57087;SDS011;42965;52.846;6.614;2023-03-12T07:50:31;14.35;;;10.52;;
57087;SDS011;42965;52.846;6.614;2023-03-12T07:52:58;14.60;;;10.02;;
57087;SDS011;42965;52.846;6.614;2023-03-12T07:55:24;14.63;;;9.25;;
57087;SDS011;42965;52.846;6.614;2023-03-12T07:57:50;12.45;;;10.18;;
57087;SDS011;42965;52.846;6.614;2023-03-12T08:00:18;12.13;;;9.05;;
57087;SDS011;42965;52.846;6.614;2023-03-12T08:02:44;14.82;;;10.02;;
57087;SDS011;42965;52.846;6.614;2023-03-12T08:05:11;14.50;;;10.15;;
57087;SDS011;42965;52.846;6.614;2023-03-12T08:07:37;15.07;;;10.27;;
57087;SDS011;42965;52.846;6.614;2023-03-12T08:10:05;16.50;;;10.45;;
57087;SDS011;42965;52.846;6.614;2023-03-12T08:12:33;15.75;;;10.85;;
57087;SDS011;42965;52.846;6.614;2023-03-12T08:14:59;35.47;;;23.17;;
57087;SDS011;42965;52.846;6.614;2023-03-12T08:17:25;16.65;;;10.52;;
57087;SDS011;42965;52.846;6.614;2023-03-12T08:19:52;13.85;;;10.38;;
57087;SDS011;42965;52.846;6.614;2023-03-12T08:22:18;12.30;;;9.90;;
57087;SDS011;42965;52.846;6.614;2023-03-12T08:24:44;14.07;;;9.85;;
57087;SDS011;42965;52.846;6.614;2023-03-12T08:27:10;15.00;;;9.63;;
57087;SDS011;42965;52.846;6.614;2023-03-12T08:29:37;18.60;;;10.68;;
57087;SDS011;42965;52.846;6.614;2023-03-12T08:32:04;16.17;;;9.82;;
57087;SDS011;42965;52.846;6.614;2023-03-12T08:34:34;13.40;;;9.93;;
57087;SDS011;42965;52.846;6.614;2023-03-12T08:37:00;17.15;;;9.68;;
57087;SDS011;42965;52.846;6.614;2023-03-12T08:39:30;13.52;;;9.80;;
57087;SDS011;42965;52.846;6.614;2023-03-12T08:42:00;14.82;;;9.07;;
57087;SDS011;42965;52.846;6.614;2023-03-12T08:44:28;11.35;;;9.15;;
57087;SDS011;42965;52.846;6.614;2023-03-12T08:46:54;11.07;;;8.80;;
57087;SDS011;42965;52.846;6.614;2023-03-12T08:49:23;12.90;;;9.65;;
57087;SDS011;42965;52.846;6.614;2023-03-12T08:51:50;13.93;;;9.57;;
57087;SDS011;42965;52.846;6.614;2023-03-12T08:54:17;15.30;;;11.40;;
57087;SDS011;42965;52.846;6.614;2023-03-12T08:56:44;14.07;;;10.27;;
57087;SDS011;42965;52.846;6.614;2023-03-12T08:59:14;14.10;;;11.02;;
57087;SDS011;42965;52.846;6.614;2023-03-12T09:01:40;16.05;;;11.57;;
57087;SDS011;42965;52.846;6.614;2023-03-12T09:04:06;17.30;;;11.23;;
57087;SDS011;42965;52.846;6.614;2023-03-12T09:06:33;14.95;;;12.70;;
57087;SDS011;42965;52.846;6.614;2023-03-12T09:08:59;18.35;;;12.05;;
57087;SDS011;42965;52.846;6.614;2023-03-12T09:11:30;16.40;;;13.23;;
57087;SDS011;42965;52.846;6.614;2023-03-12T09:13:58;18.85;;;13.50;;
57087;SDS011;42965;52.846;6.614;2023-03-12T09:16:25;16.10;;;13.80;;
57087;SDS011;42965;52.846;6.614;2023-03-12T09:18:54;21.15;;;13.05;;
57087;SDS011;42965;52.846;6.614;2023-03-12T09:21:21;20.63;;;13.85;;
57087;SDS011;42965;52.846;6.614;2023-03-12T09:23:47;16.67;;;13.98;;
57087;SDS011;42965;52.846;6.614;2023-03-12T09:26:14;18.73;;;15.25;;
57087;SDS011;42965;52.846;6.614;2023-03-12T09:28:40;17.95;;;14.45;;
57087;SDS011;42965;52.846;6.614;2023-03-12T09:31:07;22.88;;;15.18;;
57087;SDS011;42965;52.846;6.614;2023-03-12T09:33:33;19.08;;;16.33;;
57087;SDS011;42965;52.846;6.614;2023-03-12T09:36:00;18.10;;;16.15;;
57087;SDS011;42965;52.846;6.614;2023-03-12T09:38:27;22.52;;;17.83;;
57087;SDS011;42965;52.846;6.614;2023-03-12T09:40:56;19.70;;;17.50;;
57087;SDS011;42965;52.846;6.614;2023-03-12T09:43:27;22.15;;;17.23;;
57087;SDS011;42965;52.846;6.614;2023-03-12T09:46:14;23.05;;;18.80;;
57087;SDS011;42965;52.846;6.614;2023-03-12T09:48:50;24.27;;;19.75;;
57087;SDS011;42965;52.846;6.614;2023-03-12T09:51:21;26.77;;;22.30;;
57087;SDS011;42965;52.846;6.614;2023-03-12T09:53:54;32.45;;;23.20;;
57087;SDS011;42965;52.846;6.614;2023-03-12T09:56:23;26.48;;;23.50;;
57087;SDS011;42965;52.846;6.614;2023-03-12T09:58:51;28.77;;;24.95;;
57087;SDS011;42965;52.846;6.614;2023-03-12T10:04:34;31.60;;;24.05;;
57087;SDS011;42965;52.846;6.614;2023-03-12T10:07:11;32.85;;;25.45;;
57087;SDS011;42965;52.846;6.614;2023-03-12T10:21:01;36.08;;;28.88;;
57087;SDS011;42965;52.846;6.614;2023-03-12T10:26:37;34.22;;;29.70;;
57087;SDS011;42965;52.846;6.614;2023-03-12T10:29:18;33.92;;;29.15;;
57087;SDS011;42965;52.846;6.614;2023-03-12T10:31:49;37.50;;;28.17;;
57087;SDS011;42965;52.846;6.614;2023-03-12T10:34:42;34.90;;;28.60;;
57087;SDS011;42965;52.846;6.614;2023-03-12T10:37:28;37.75;;;29.92;;
57087;SDS011;42965;52.846;6.614;2023-03-12T10:40:03;37.40;;;30.77;;
57087;SDS011;42965;52.846;6.614;2023-03-12T10:42:30;35.30;;;28.98;;
57087;SDS011;42965;52.846;6.614;2023-03-12T10:44:58;36.75;;;29.98;;
57087;SDS011;42965;52.846;6.614;2023-03-12T10:47:49;35.03;;;28.27;;
57087;SDS011;42965;52.846;6.614;2023-03-12T10:50:23;34.50;;;28.27;;
57087;SDS011;42965;52.846;6.614;2023-03-12T10:52:52;33.42;;;27.65;;
57087;SDS011;42965;52.846;6.614;2023-03-12T10:55:37;36.55;;;27.35;;
57087;SDS011;42965;52.846;6.614;2023-03-12T10:58:03;34.88;;;27.13;;
57087;SDS011;42965;52.846;6.614;2023-03-12T11:00:30;35.72;;;28.73;;
57087;SDS011;42965;52.846;6.614;2023-03-12T11:03:01;33.38;;;26.48;;
57087;SDS011;42965;52.846;6.614;2023-03-12T11:05:36;30.00;;;26.02;;
57087;SDS011;42965;52.846;6.614;2023-03-12T11:10:48;31.60;;;25.02;;
57087;SDS011;42965;52.846;6.614;2023-03-12T11:13:22;29.73;;;23.60;;
57087;SDS011;42965;52.846;6.614;2023-03-12T11:15:49;29.48;;;22.92;;
57087;SDS011;42965;52.846;6.614;2023-03-12T11:18:22;30.48;;;23.98;;
57087;SDS011;42965;52.846;6.614;2023-03-12T11:21:10;32.60;;;23.20;;
57087;SDS011;42965;52.846;6.614;2023-03-12T11:23:40;29.95;;;21.35;;
57087;SDS011;42965;52.846;6.614;2023-03-12T11:26:34;28.90;;;23.17;;
57087;SDS011;42965;52.846;6.614;2023-03-12T11:34:23;29.10;;;22.27;;
57087;SDS011;42965;52.846;6.614;2023-03-12T11:37:13;32.63;;;23.13;;
57087;SDS011;42965;52.846;6.614;2023-03-12T11:45:16;40.30;;;25.55;;
57087;SDS011;42965;52.846;6.614;2023-03-12T11:53:12;42.55;;;27.55;;
57087;SDS011;42965;52.846;6.614;2023-03-12T11:58:33;42.30;;;28.70;;
57087;SDS011;42965;52.846;6.614;2023-03-12T12:04:21;39.47;;;26.73;;
57087;SDS011;42965;52.846;6.614;2023-03-12T12:07:57;35.65;;;25.42;;
57087;SDS011;42965;52.846;6.614;2023-03-12T12:10:12;30.10;;;22.08;;
57087;SDS011;42965;52.846;6.614;2023-03-12T12:13:09;34.08;;;23.35;;
57087;SDS011;42965;52.846;6.614;2023-03-12T12:24:36;33.17;;;24.67;;
57087;SDS011;42965;52.846;6.614;2023-03-12T12:27:26;40.38;;;26.67;;
57087;SDS011;42965;52.846;6.614;2023-03-12T12:40:46;49.22;;;29.35;;
57087;SDS011;42965;52.846;6.614;2023-03-12T12:43:27;39.60;;;26.98;;
57087;SDS011;42965;52.846;6.614;2023-03-12T12:45:59;46.90;;;28.27;;
57087;SDS011;42965;52.846;6.614;2023-03-12T12:51:18;47.60;;;27.25;;
57087;SDS011;42965;52.846;6.614;2023-03-12T12:53:52;58.42;;;31.73;;
57087;SDS011;42965;52.846;6.614;2023-03-12T12:56:29;54.00;;;29.30;;
57087;SDS011;42965;52.846;6.614;2023-03-12T13:01:47;51.58;;;29.10;;
57087;SDS011;42965;52.846;6.614;2023-03-12T13:04:18;51.17;;;29.00;;
57087;SDS011;42965;52.846;6.614;2023-03-12T13:07:02;52.58;;;27.75;;
57087;SDS011;42965;52.846;6.614;2023-03-12T13:09:39;50.33;;;28.55;;
57087;SDS011;42965;52.846;6.614;2023-03-12T13:15:00;46.97;;;27.65;;
57087;SDS011;42965;52.846;6.614;2023-03-12T13:28:33;58.83;;;30.30;;
57087;SDS011;42965;52.846;6.614;2023-03-12T13:33:48;49.90;;;25.73;;
57087;SDS011;42965;52.846;6.614;2023-03-12T13:38:55;55.63;;;26.35;;
57087;SDS011;42965;52.846;6.614;2023-03-12T13:43:59;52.13;;;25.60;;
57087;SDS011;42965;52.846;6.614;2023-03-12T13:46:45;55.00;;;27.10;;
57087;SDS011;42965;52.846;6.614;2023-03-12T13:49:13;52.22;;;26.88;;
57087;SDS011;42965;52.846;6.614;2023-03-12T13:51:43;51.17;;;25.67;;
57087;SDS011;42965;52.846;6.614;2023-03-12T13:54:15;50.10;;;25.92;;
57087;SDS011;42965;52.846;6.614;2023-03-12T13:59:24;50.38;;;26.35;;
57087;SDS011;42965;52.846;6.614;2023-03-12T14:01:56;47.78;;;26.23;;
57087;SDS011;42965;52.846;6.614;2023-03-12T14:04:31;58.17;;;27.63;;
57087;SDS011;42965;52.846;6.614;2023-03-12T14:07:09;56.08;;;26.83;;
57087;SDS011;42965;52.846;6.614;2023-03-12T14:15:20;55.15;;;25.08;;
57087;SDS011;42965;52.846;6.614;2023-03-12T14:18:03;47.22;;;24.15;;
57087;SDS011;42965;52.846;6.614;2023-03-12T14:20:40;42.00;;;21.90;;
57087;SDS011;42965;52.846;6.614;2023-03-12T14:23:18;49.05;;;22.23;;
57087;SDS011;42965;52.846;6.614;2023-03-12T14:25:45;42.03;;;21.15;;
57087;SDS011;42965;52.846;6.614;2023-03-12T14:28:16;45.05;;;22.35;;
57087;SDS011;42965;52.846;6.614;2023-03-12T14:33:32;48.08;;;19.95;;
57087;SDS011;42965;52.846;6.614;2023-03-12T14:36:03;41.40;;;19.75;;
57087;SDS011;42965;52.846;6.614;2023-03-12T14:38:37;43.83;;;18.42;;
57087;SDS011;42965;52.846;6.614;2023-03-12T14:43:53;39.83;;;16.27;;
57087;SDS011;42965;52.846;6.614;2023-03-12T14:46:45;43.30;;;16.02;;
57087;SDS011;42965;52.846;6.614;2023-03-12T14:49:21;41.75;;;14.55;;
57087;SDS011;42965;52.846;6.614;2023-03-12T14:51:47;34.50;;;13.55;;
57087;SDS011;42965;52.846;6.614;2023-03-12T14:54:18;42.10;;;14.45;;
57087;SDS011;42965;52.846;6.614;2023-03-12T14:56:47;28.48;;;11.90;;
57087;SDS011;42965;52.846;6.614;2023-03-12T14:59:27;42.03;;;12.90;;
57087;SDS011;42965;52.846;6.614;2023-03-12T15:01:59;43.90;;;12.00;;
57087;SDS011;42965;52.846;6.614;2023-03-12T15:04:29;44.58;;;11.65;;
57087;SDS011;42965;52.846;6.614;2023-03-12T15:06:58;45.08;;;10.68;;
57087;SDS011;42965;52.846;6.614;2023-03-12T15:09:30;45.00;;;10.43;;
57087;SDS011;42965;52.846;6.614;2023-03-12T15:12:03;39.67;;;10.18;;
57087;SDS011;42965;52.846;6.614;2023-03-12T15:14:32;48.35;;;10.02;;
57087;SDS011;42965;52.846;6.614;2023-03-12T15:17:03;37.03;;;8.80;;
57087;SDS011;42965;52.846;6.614;2023-03-12T15:19:32;39.13;;;8.40;;
57087;SDS011;42965;52.846;6.614;2023-03-12T15:22:02;47.92;;;9.77;;
57087;SDS011;42965;52.846;6.614;2023-03-12T15:24:32;40.78;;;8.20;;
57087;SDS011;42965;52.846;6.614;2023-03-12T15:36:02;34.05;;;8.13;;
57087;SDS011;42965;52.846;6.614;2023-03-12T15:38:53;39.88;;;7.82;;
57087;SDS011;42965;52.846;6.614;2023-03-12T15:41:27;44.42;;;9.93;;
57087;SDS011;42965;52.846;6.614;2023-03-12T15:44:24;30.65;;;7.65;;
57087;SDS011;42965;52.846;6.614;2023-03-12T15:46:53;40.70;;;9.32;;
57087;SDS011;42965;52.846;6.614;2023-03-12T15:49:41;38.03;;;7.53;;
57087;SDS011;42965;52.846;6.614;2023-03-12T16:00:24;33.67;;;8.15;;
57087;SDS011;42965;52.846;6.614;2023-03-12T16:05:40;41.28;;;9.10;;
57087;SDS011;42965;52.846;6.614;2023-03-12T16:10:44;35.30;;;8.38;;
57087;SDS011;42965;52.846;6.614;2023-03-12T16:13:13;52.17;;;9.25;;
57087;SDS011;42965;52.846;6.614;2023-03-12T16:15:40;38.47;;;9.10;;
57087;SDS011;42965;52.846;6.614;2023-03-12T16:18:17;37.28;;;7.57;;
57087;SDS011;42965;52.846;6.614;2023-03-12T16:20:46;39.60;;;7.90;;
57087;SDS011;42965;52.846;6.614;2023-03-12T16:23:13;36.80;;;7.65;;
57087;SDS011;42965;52.846;6.614;2023-03-12T16:25:44;39.40;;;7.63;;
57087;SDS011;42965;52.846;6.614;2023-03-12T16:28:14;38.38;;;7.45;;
57087;SDS011;42965;52.846;6.614;2023-03-12T16:30:42;30.30;;;7.38;;
57087;SDS011;42965;52.846;6.614;2023-03-12T16:33:11;29.50;;;7.35;;
57087;SDS011;42965;52.846;6.614;2023-03-12T16:35:42;34.15;;;8.05;;
57087;SDS011;42965;52.846;6.614;2023-03-12T16:38:08;40.53;;;7.57;;
57087;SDS011;42965;52.846;6.614;2023-03-12T16:40:36;33.58;;;7.20;;
57087;SDS011;42965;52.846;6.614;2023-03-12T16:43:05;41.40;;;9.50;;
57087;SDS011;42965;52.846;6.614;2023-03-12T16:45:36;44.28;;;8.35;;
57087;SDS011;42965;52.846;6.614;2023-03-12T16:48:06;39.92;;;8.27;;
57087;SDS011;42965;52.846;6.614;2023-03-12T16:50:39;36.67;;;8.10;;
57087;SDS011;42965;52.846;6.614;2023-03-12T16:53:05;40.35;;;8.52;;
57087;SDS011;42965;52.846;6.614;2023-03-12T16:55:38;36.67;;;7.38;;
57087;SDS011;42965;52.846;6.614;2023-03-12T16:58:17;39.03;;;7.75;;
57087;SDS011;42965;52.846;6.614;2023-03-12T17:00:45;39.85;;;8.45;;
57087;SDS011;42965;52.846;6.614;2023-03-12T17:03:15;36.50;;;7.85;;
57087;SDS011;42965;52.846;6.614;2023-03-12T17:05:52;34.35;;;7.13;;